sensor_id;sensor_type;location;lat;lon;timestamp;P1;durP1;ratioP1;P2;durP2;ratioP2
52866;SDS011;38739;53.324;6.862;2022-08-01T00:00:25;4.85;;;3.72;;
52866;SDS011;38739;53.324;6.862;2022-08-01T00:02:51;3.90;;;3.50;;
52866;SDS011;38739;53.324;6.862;2022-08-01T00:05:17;4.93;;;3.50;;
52866;SDS011;38739;53.324;6.862;2022-08-01T00:07:42;11.07;;;4.18;;
52866;SDS011;38739;53.324;6.862;2022-08-01T00:10:12;5.68;;;3.35;;
52866;SDS011;38739;53.324;6.862;2022-08-01T00:12:40;6.50;;;3.00;;
52866;SDS011;38739;53.324;6.862;2022-08-01T00:15:07;4.07;;;2.90;;
52866;SDS011;38739;53.324;6.862;2022-08-01T00:17:34;8.30;;;3.25;;
52866;SDS011;38739;53.324;6.862;2022-08-01T00:20:00;8.10;;;3.78;;
52866;SDS011;38739;53.324;6.862;2022-08-01T00:22:27;5.50;;;3.63;;
52866;SDS011;38739;53.324;6.862;2022-08-01T00:24:56;10.05;;;3.40;;
52866;SDS011;38739;53.324;6.862;2022-08-01T00:27:22;8.30;;;3.95;;
52866;SDS011;38739;53.324;6.862;2022-08-01T00:29:48;7.65;;;3.80;;
52866;SDS011;38739;53.324;6.862;2022-08-01T00:32:13;8.63;;;4.20;;
52866;SDS011;38739;53.324;6.862;2022-08-01T00:34:39;9.77;;;4.47;;
52866;SDS011;38739;53.324;6.862;2022-08-01T00:37:05;7.78;;;3.90;;
52866;SDS011;38739;53.324;6.862;2022-08-01T00:50:05;8.18;;;4.00;;
52866;SDS011;38739;53.324;6.862;2022-08-01T00:52:31;7.38;;;3.75;;
52866;SDS011;38739;53.324;6.862;2022-08-01T00:54:58;6.07;;;3.83;;
52866;SDS011;38739;53.324;6.862;2022-08-01T00:57:24;4.90;;;3.30;;
52866;SDS011;38739;53.324;6.862;2022-08-01T00:59:50;7.10;;;3.80;;
52866;SDS011;38739;53.324;6.862;2022-08-01T01:02:17;8.48;;;3.42;;
52866;SDS011;38739;53.324;6.862;2022-08-01T01:04:43;6.25;;;3.00;;
52866;SDS011;38739;53.324;6.862;2022-08-01T01:09:50;5.45;;;2.72;;
52866;SDS011;38739;53.324;6.862;2022-08-01T01:15:22;7.75;;;2.90;;
52866;SDS011;38739;53.324;6.862;2022-08-01T01:20:27;6.70;;;3.13;;
52866;SDS011;38739;53.324;6.862;2022-08-01T01:23:21;6.38;;;3.15;;
52866;SDS011;38739;53.324;6.862;2022-08-01T01:31:23;8.57;;;3.20;;
52866;SDS011;38739;53.324;6.862;2022-08-01T01:33:50;11.07;;;3.17;;
52866;SDS011;38739;53.324;6.862;2022-08-01T01:36:18;7.82;;;2.97;;
52866;SDS011;38739;53.324;6.862;2022-08-01T01:38:46;6.68;;;3.15;;
52866;SDS011;38739;53.324;6.862;2022-08-01T01:41:14;7.95;;;2.88;;
52866;SDS011;38739;53.324;6.862;2022-08-01T01:43:42;8.02;;;2.70;;
52866;SDS011;38739;53.324;6.862;2022-08-01T01:46:10;8.93;;;3.00;;
52866;SDS011;38739;53.324;6.862;2022-08-01T01:48:37;11.23;;;2.88;;
52866;SDS011;38739;53.324;6.862;2022-08-01T01:51:04;9.90;;;2.92;;
52866;SDS011;38739;53.324;6.862;2022-08-01T01:53:31;10.20;;;3.10;;
52866;SDS011;38739;53.324;6.862;2022-08-01T01:55:58;10.95;;;2.88;;
52866;SDS011;38739;53.324;6.862;2022-08-01T01:58:27;6.75;;;2.65;;
52866;SDS011;38739;53.324;6.862;2022-08-01T02:00:53;7.72;;;2.70;;
52866;SDS011;38739;53.324;6.862;2022-08-01T02:03:21;7.95;;;2.95;;
52866;SDS011;38739;53.324;6.862;2022-08-01T02:05:49;9.13;;;2.25;;
52866;SDS011;38739;53.324;6.862;2022-08-01T02:08:17;9.23;;;2.42;;
52866;SDS011;38739;53.324;6.862;2022-08-01T02:10:42;9.85;;;2.40;;
52866;SDS011;38739;53.324;6.862;2022-08-01T02:13:31;8.20;;;2.55;;
52866;SDS011;38739;53.324;6.862;2022-08-01T02:15:59;8.27;;;2.13;;
52866;SDS011;38739;53.324;6.862;2022-08-01T02:18:27;9.40;;;2.25;;
52866;SDS011;38739;53.324;6.862;2022-08-01T02:20:53;10.15;;;2.10;;
52866;SDS011;38739;53.324;6.862;2022-08-01T02:23:20;7.50;;;1.95;;
52866;SDS011;38739;53.324;6.862;2022-08-01T02:25:48;8.57;;;2.60;;
52866;SDS011;38739;53.324;6.862;2022-08-01T02:28:17;14.50;;;2.30;;
52866;SDS011;38739;53.324;6.862;2022-08-01T02:30:52;7.35;;;2.20;;
52866;SDS011;38739;53.324;6.862;2022-08-01T02:33:21;11.25;;;2.65;;
52866;SDS011;38739;53.324;6.862;2022-08-01T02:35:50;11.13;;;2.40;;
52866;SDS011;38739;53.324;6.862;2022-08-01T02:38:18;13.10;;;3.08;;
52866;SDS011;38739;53.324;6.862;2022-08-01T02:40:49;9.10;;;2.83;;
52866;SDS011;38739;53.324;6.862;2022-08-01T02:43:17;8.38;;;2.30;;
52866;SDS011;38739;53.324;6.862;2022-08-01T02:45:47;9.25;;;2.50;;
52866;SDS011;38739;53.324;6.862;2022-08-01T02:48:17;12.60;;;3.00;;
52866;SDS011;38739;53.324;6.862;2022-08-01T02:50:45;13.57;;;2.58;;
52866;SDS011;38739;53.324;6.862;2022-08-01T02:53:14;8.27;;;2.92;;
52866;SDS011;38739;53.324;6.862;2022-08-01T02:55:43;13.20;;;3.00;;
52866;SDS011;38739;53.324;6.862;2022-08-01T02:58:12;12.13;;;3.13;;
52866;SDS011;38739;53.324;6.862;2022-08-01T03:00:41;11.45;;;3.33;;
52866;SDS011;38739;53.324;6.862;2022-08-01T03:03:09;10.30;;;3.67;;
52866;SDS011;38739;53.324;6.862;2022-08-01T03:05:36;10.38;;;3.20;;
52866;SDS011;38739;53.324;6.862;2022-08-01T03:08:05;12.10;;;3.33;;
52866;SDS011;38739;53.324;6.862;2022-08-01T03:10:33;12.98;;;3.22;;
52866;SDS011;38739;53.324;6.862;2022-08-01T03:13:01;12.45;;;3.42;;
52866;SDS011;38739;53.324;6.862;2022-08-01T03:15:31;14.68;;;3.53;;
52866;SDS011;38739;53.324;6.862;2022-08-01T03:17:58;10.55;;;3.78;;
52866;SDS011;38739;53.324;6.862;2022-08-01T03:20:26;12.55;;;3.75;;
52866;SDS011;38739;53.324;6.862;2022-08-01T03:22:54;14.20;;;3.88;;
52866;SDS011;38739;53.324;6.862;2022-08-01T03:25:23;14.05;;;3.75;;
52866;SDS011;38739;53.324;6.862;2022-08-01T03:27:54;9.93;;;3.75;;
52866;SDS011;38739;53.324;6.862;2022-08-01T03:30:25;9.35;;;3.28;;
52866;SDS011;38739;53.324;6.862;2022-08-01T03:32:52;14.00;;;3.90;;
52866;SDS011;38739;53.324;6.862;2022-08-01T03:35:18;13.73;;;3.42;;
52866;SDS011;38739;53.324;6.862;2022-08-01T03:37:47;10.00;;;3.53;;
52866;SDS011;38739;53.324;6.862;2022-08-01T03:40:23;12.77;;;3.90;;
52866;SDS011;38739;53.324;6.862;2022-08-01T03:42:58;14.77;;;3.90;;
52866;SDS011;38739;53.324;6.862;2022-08-01T03:45:29;12.57;;;3.75;;
52866;SDS011;38739;53.324;6.862;2022-08-01T03:50:27;14.30;;;3.63;;
52866;SDS011;38739;53.324;6.862;2022-08-01T03:52:55;23.02;;;3.88;;
52866;SDS011;38739;53.324;6.862;2022-08-01T03:55:24;15.52;;;3.42;;
52866;SDS011;38739;53.324;6.862;2022-08-01T03:57:50;14.48;;;4.05;;
52866;SDS011;38739;53.324;6.862;2022-08-01T04:00:17;16.48;;;3.95;;
52866;SDS011;38739;53.324;6.862;2022-08-01T04:02:49;19.55;;;3.83;;
52866;SDS011;38739;53.324;6.862;2022-08-01T04:05:16;18.05;;;4.20;;
52866;SDS011;38739;53.324;6.862;2022-08-01T04:07:45;16.92;;;4.38;;
52866;SDS011;38739;53.324;6.862;2022-08-01T04:10:20;18.23;;;3.70;;
52866;SDS011;38739;53.324;6.862;2022-08-01T04:12:47;14.50;;;3.63;;
52866;SDS011;38739;53.324;6.862;2022-08-01T04:15:13;12.98;;;2.90;;
52866;SDS011;38739;53.324;6.862;2022-08-01T04:17:39;21.73;;;4.75;;
52866;SDS011;38739;53.324;6.862;2022-08-01T04:20:05;28.77;;;4.20;;
52866;SDS011;38739;53.324;6.862;2022-08-01T04:22:31;21.65;;;3.78;;
52866;SDS011;38739;53.324;6.862;2022-08-01T04:24:58;20.50;;;3.85;;
52866;SDS011;38739;53.324;6.862;2022-08-01T04:27:28;18.25;;;3.80;;
52866;SDS011;38739;53.324;6.862;2022-08-01T04:29:58;22.30;;;4.18;;
52866;SDS011;38739;53.324;6.862;2022-08-01T04:32:29;18.65;;;3.72;;
52866;SDS011;38739;53.324;6.862;2022-08-01T04:35:00;16.75;;;3.78;;
52866;SDS011;38739;53.324;6.862;2022-08-01T04:37:30;21.50;;;3.92;;
52866;SDS011;38739;53.324;6.862;2022-08-01T04:39:56;20.08;;;3.88;;
52866;SDS011;38739;53.324;6.862;2022-08-01T04:42:24;15.43;;;3.78;;
52866;SDS011;38739;53.324;6.862;2022-08-01T04:44:50;20.58;;;3.83;;
52866;SDS011;38739;53.324;6.862;2022-08-01T04:47:16;16.80;;;3.85;;
52866;SDS011;38739;53.324;6.862;2022-08-01T04:49:43;17.67;;;3.53;;
52866;SDS011;38739;53.324;6.862;2022-08-01T04:52:11;20.17;;;4.28;;
52866;SDS011;38739;53.324;6.862;2022-08-01T04:54:37;24.58;;;4.53;;
52866;SDS011;38739;53.324;6.862;2022-08-01T04:57:06;19.52;;;4.13;;
52866;SDS011;38739;53.324;6.862;2022-08-01T04:59:32;28.27;;;4.47;;
52866;SDS011;38739;53.324;6.862;2022-08-01T05:04:36;22.00;;;4.68;;
52866;SDS011;38739;53.324;6.862;2022-08-01T05:07:03;22.58;;;4.25;;
52866;SDS011;38739;53.324;6.862;2022-08-01T05:09:30;25.38;;;4.70;;
52866;SDS011;38739;53.324;6.862;2022-08-01T05:11:59;19.20;;;4.55;;
52866;SDS011;38739;53.324;6.862;2022-08-01T05:14:26;18.95;;;4.38;;
52866;SDS011;38739;53.324;6.862;2022-08-01T05:16:53;21.13;;;4.40;;
52866;SDS011;38739;53.324;6.862;2022-08-01T05:19:19;22.58;;;4.80;;
52866;SDS011;38739;53.324;6.862;2022-08-01T05:21:45;20.77;;;4.25;;
52866;SDS011;38739;53.324;6.862;2022-08-01T05:24:14;18.45;;;4.45;;
52866;SDS011;38739;53.324;6.862;2022-08-01T05:26:40;24.25;;;4.57;;
52866;SDS011;38739;53.324;6.862;2022-08-01T05:29:05;24.45;;;5.25;;
52866;SDS011;38739;53.324;6.862;2022-08-01T05:31:31;23.42;;;4.13;;
52866;SDS011;38739;53.324;6.862;2022-08-01T05:33:59;24.65;;;4.15;;
52866;SDS011;38739;53.324;6.862;2022-08-01T05:36:26;22.88;;;4.57;;
52866;SDS011;38739;53.324;6.862;2022-08-01T05:38:52;19.67;;;4.57;;
52866;SDS011;38739;53.324;6.862;2022-08-01T05:41:17;22.23;;;4.97;;
52866;SDS011;38739;53.324;6.862;2022-08-01T05:43:43;22.63;;;4.07;;
52866;SDS011;38739;53.324;6.862;2022-08-01T05:46:09;16.20;;;3.83;;
52866;SDS011;38739;53.324;6.862;2022-08-01T05:48:35;18.30;;;3.80;;
52866;SDS011;38739;53.324;6.862;2022-08-01T05:51:00;31.02;;;4.60;;
52866;SDS011;38739;53.324;6.862;2022-08-01T05:53:26;20.77;;;3.92;;
52866;SDS011;38739;53.324;6.862;2022-08-01T05:55:52;20.40;;;4.18;;
52866;SDS011;38739;53.324;6.862;2022-08-01T05:58:17;21.17;;;4.25;;
52866;SDS011;38739;53.324;6.862;2022-08-01T06:00:43;21.83;;;3.72;;
52866;SDS011;38739;53.324;6.862;2022-08-01T06:03:12;14.95;;;3.50;;
52866;SDS011;38739;53.324;6.862;2022-08-01T06:05:39;20.20;;;3.95;;
52866;SDS011;38739;53.324;6.862;2022-08-01T06:08:05;18.73;;;3.72;;
52866;SDS011;38739;53.324;6.862;2022-08-01T06:10:31;19.92;;;3.55;;
52866;SDS011;38739;53.324;6.862;2022-08-01T06:12:56;32.60;;;4.72;;
52866;SDS011;38739;53.324;6.862;2022-08-01T06:15:31;22.42;;;3.67;;
52866;SDS011;38739;53.324;6.862;2022-08-01T06:17:57;18.73;;;3.80;;
52866;SDS011;38739;53.324;6.862;2022-08-01T06:20:23;16.60;;;3.40;;
52866;SDS011;38739;53.324;6.862;2022-08-01T06:22:49;20.77;;;3.95;;
52866;SDS011;38739;53.324;6.862;2022-08-01T06:25:17;18.33;;;3.40;;
52866;SDS011;38739;53.324;6.862;2022-08-01T06:27:43;18.20;;;3.30;;
52866;SDS011;38739;53.324;6.862;2022-08-01T06:30:09;25.52;;;4.35;;
52866;SDS011;38739;53.324;6.862;2022-08-01T06:32:37;20.15;;;3.72;;
52866;SDS011;38739;53.324;6.862;2022-08-01T06:35:03;21.08;;;3.88;;
52866;SDS011;38739;53.324;6.862;2022-08-01T06:37:30;15.20;;;3.60;;
52866;SDS011;38739;53.324;6.862;2022-08-01T06:40:00;20.63;;;4.20;;
52866;SDS011;38739;53.324;6.862;2022-08-01T06:42:30;17.75;;;3.58;;
52866;SDS011;38739;53.324;6.862;2022-08-01T06:45:05;13.57;;;3.40;;
52866;SDS011;38739;53.324;6.862;2022-08-01T06:47:35;21.90;;;4.13;;
52866;SDS011;38739;53.324;6.862;2022-08-01T06:50:05;19.25;;;3.78;;
52866;SDS011;38739;53.324;6.862;2022-08-01T06:52:32;15.20;;;3.17;;
52866;SDS011;38739;53.324;6.862;2022-08-01T06:54:58;14.50;;;3.25;;
52866;SDS011;38739;53.324;6.862;2022-08-01T06:57:25;14.75;;;2.92;;
52866;SDS011;38739;53.324;6.862;2022-08-01T06:59:50;12.82;;;2.88;;
52866;SDS011;38739;53.324;6.862;2022-08-01T07:02:16;17.40;;;3.22;;
52866;SDS011;38739;53.324;6.862;2022-08-01T07:04:42;17.27;;;3.13;;
52866;SDS011;38739;53.324;6.862;2022-08-01T07:07:08;16.05;;;2.75;;
52866;SDS011;38739;53.324;6.862;2022-08-01T07:09:33;17.75;;;2.70;;
52866;SDS011;38739;53.324;6.862;2022-08-01T07:11:59;14.55;;;2.47;;
52866;SDS011;38739;53.324;6.862;2022-08-01T07:14:25;11.02;;;2.40;;
52866;SDS011;38739;53.324;6.862;2022-08-01T07:16:51;12.18;;;2.67;;
52866;SDS011;38739;53.324;6.862;2022-08-01T07:19:17;13.43;;;2.65;;
52866;SDS011;38739;53.324;6.862;2022-08-01T07:21:44;16.35;;;2.70;;
52866;SDS011;38739;53.324;6.862;2022-08-01T07:24:10;14.23;;;2.47;;
52866;SDS011;38739;53.324;6.862;2022-08-01T07:26:38;16.70;;;2.70;;
52866;SDS011;38739;53.324;6.862;2022-08-01T07:29:04;11.70;;;2.80;;
52866;SDS011;38739;53.324;6.862;2022-08-01T07:31:30;12.75;;;2.42;;
52866;SDS011;38739;53.324;6.862;2022-08-01T07:33:55;16.73;;;2.67;;
52866;SDS011;38739;53.324;6.862;2022-08-01T07:36:21;16.85;;;2.72;;
52866;SDS011;38739;53.324;6.862;2022-08-01T07:38:47;15.35;;;2.60;;
52866;SDS011;38739;53.324;6.862;2022-08-01T07:41:13;12.88;;;2.25;;
52866;SDS011;38739;53.324;6.862;2022-08-01T07:43:39;14.50;;;2.50;;
52866;SDS011;38739;53.324;6.862;2022-08-01T07:46:05;12.70;;;2.20;;
52866;SDS011;38739;53.324;6.862;2022-08-01T07:48:31;13.98;;;2.40;;
52866;SDS011;38739;53.324;6.862;2022-08-01T07:50:57;15.38;;;2.58;;
52866;SDS011;38739;53.324;6.862;2022-08-01T07:53:23;11.68;;;2.60;;
52866;SDS011;38739;53.324;6.862;2022-08-01T07:55:49;11.30;;;2.47;;
52866;SDS011;38739;53.324;6.862;2022-08-01T07:58:15;12.02;;;2.17;;
52866;SDS011;38739;53.324;6.862;2022-08-01T08:00:41;12.80;;;2.17;;
52866;SDS011;38739;53.324;6.862;2022-08-01T08:03:07;15.70;;;3.03;;
52866;SDS011;38739;53.324;6.862;2022-08-01T08:05:33;17.77;;;3.58;;
52866;SDS011;38739;53.324;6.862;2022-08-01T08:08:04;24.90;;;3.67;;
52866;SDS011;38739;53.324;6.862;2022-08-01T08:10:30;14.32;;;2.65;;
52866;SDS011;38739;53.324;6.862;2022-08-01T08:12:56;8.20;;;1.73;;
52866;SDS011;38739;53.324;6.862;2022-08-01T08:15:22;15.07;;;3.60;;
52866;SDS011;38739;53.324;6.862;2022-08-01T08:17:48;21.00;;;2.47;;
52866;SDS011;38739;53.324;6.862;2022-08-01T08:20:14;20.05;;;4.28;;
52866;SDS011;38739;53.324;6.862;2022-08-01T08:22:39;10.30;;;2.10;;
52866;SDS011;38739;53.324;6.862;2022-08-01T08:25:05;11.43;;;2.00;;
52866;SDS011;38739;53.324;6.862;2022-08-01T08:27:32;10.85;;;1.92;;
52866;SDS011;38739;53.324;6.862;2022-08-01T08:29:57;17.30;;;1.98;;
52866;SDS011;38739;53.324;6.862;2022-08-01T08:32:23;13.95;;;2.17;;
52866;SDS011;38739;53.324;6.862;2022-08-01T08:34:49;10.98;;;1.88;;
52866;SDS011;38739;53.324;6.862;2022-08-01T08:37:15;13.55;;;2.00;;
52866;SDS011;38739;53.324;6.862;2022-08-01T08:39:42;9.27;;;1.67;;
52866;SDS011;38739;53.324;6.862;2022-08-01T08:42:09;13.63;;;1.88;;
52866;SDS011;38739;53.324;6.862;2022-08-01T08:44:36;9.93;;;2.10;;
52866;SDS011;38739;53.324;6.862;2022-08-01T08:47:03;12.52;;;2.38;;
52866;SDS011;38739;53.324;6.862;2022-08-01T08:49:32;14.02;;;2.17;;
52866;SDS011;38739;53.324;6.862;2022-08-01T08:51:59;14.23;;;2.28;;
52866;SDS011;38739;53.324;6.862;2022-08-01T08:54:26;9.15;;;1.70;;
52866;SDS011;38739;53.324;6.862;2022-08-01T08:56:53;8.95;;;1.60;;
52866;SDS011;38739;53.324;6.862;2022-08-01T08:59:20;11.38;;;2.25;;
52866;SDS011;38739;53.324;6.862;2022-08-01T09:01:47;12.82;;;1.80;;
52866;SDS011;38739;53.324;6.862;2022-08-01T09:04:13;15.18;;;2.05;;
52866;SDS011;38739;53.324;6.862;2022-08-01T09:06:39;10.07;;;2.05;;
52866;SDS011;38739;53.324;6.862;2022-08-01T09:09:06;11.55;;;2.38;;
52866;SDS011;38739;53.324;6.862;2022-08-01T09:11:33;9.23;;;1.63;;
52866;SDS011;38739;53.324;6.862;2022-08-01T09:14:09;11.05;;;1.90;;
52866;SDS011;38739;53.324;6.862;2022-08-01T09:16:41;7.35;;;1.90;;
52866;SDS011;38739;53.324;6.862;2022-08-01T09:19:16;11.75;;;1.75;;
52866;SDS011;38739;53.324;6.862;2022-08-01T09:22:17;10.32;;;1.52;;
52866;SDS011;38739;53.324;6.862;2022-08-01T09:24:37;8.73;;;1.70;;
52866;SDS011;38739;53.324;6.862;2022-08-01T09:27:20;10.95;;;1.95;;
52866;SDS011;38739;53.324;6.862;2022-08-01T09:29:50;9.73;;;1.80;;
52866;SDS011;38739;53.324;6.862;2022-08-01T09:32:19;10.57;;;1.98;;
52866;SDS011;38739;53.324;6.862;2022-08-01T09:34:48;9.40;;;1.65;;
52866;SDS011;38739;53.324;6.862;2022-08-01T09:37:13;7.47;;;1.60;;
52866;SDS011;38739;53.324;6.862;2022-08-01T09:39:43;8.15;;;1.58;;
52866;SDS011;38739;53.324;6.862;2022-08-01T09:42:20;6.60;;;1.50;;
52866;SDS011;38739;53.324;6.862;2022-08-01T09:44:48;8.27;;;2.00;;
52866;SDS011;38739;53.324;6.862;2022-08-01T09:47:15;10.75;;;1.85;;
52866;SDS011;38739;53.324;6.862;2022-08-01T09:49:42;10.60;;;1.70;;
52866;SDS011;38739;53.324;6.862;2022-08-01T09:54:40;11.75;;;2.03;;
52866;SDS011;38739;53.324;6.862;2022-08-01T09:57:09;8.98;;;1.58;;
52866;SDS011;38739;53.324;6.862;2022-08-01T09:59:37;8.68;;;1.70;;
52866;SDS011;38739;53.324;6.862;2022-08-01T10:02:06;7.90;;;2.05;;
52866;SDS011;38739;53.324;6.862;2022-08-01T10:04:34;8.00;;;1.80;;
52866;SDS011;38739;53.324;6.862;2022-08-01T10:07:04;10.18;;;2.25;;
52866;SDS011;38739;53.324;6.862;2022-08-01T10:09:32;12.55;;;1.92;;
52866;SDS011;38739;53.324;6.862;2022-08-01T10:11:59;10.07;;;1.63;;
52866;SDS011;38739;53.324;6.862;2022-08-01T10:14:26;8.75;;;1.48;;
52866;SDS011;38739;53.324;6.862;2022-08-01T10:16:53;8.23;;;1.70;;
52866;SDS011;38739;53.324;6.862;2022-08-01T10:19:23;10.65;;;1.65;;
52866;SDS011;38739;53.324;6.862;2022-08-01T10:21:51;11.95;;;1.92;;
52866;SDS011;38739;53.324;6.862;2022-08-01T10:24:22;8.52;;;1.50;;
52866;SDS011;38739;53.324;6.862;2022-08-01T10:26:49;9.65;;;1.90;;
52866;SDS011;38739;53.324;6.862;2022-08-01T10:29:19;9.00;;;2.10;;
52866;SDS011;38739;53.324;6.862;2022-08-01T10:31:46;9.93;;;1.75;;
52866;SDS011;38739;53.324;6.862;2022-08-01T10:34:12;8.32;;;1.70;;
52866;SDS011;38739;53.324;6.862;2022-08-01T10:36:41;9.07;;;1.60;;
52866;SDS011;38739;53.324;6.862;2022-08-01T10:39:10;11.02;;;2.58;;
52866;SDS011;38739;53.324;6.862;2022-08-01T10:41:37;9.45;;;2.17;;
52866;SDS011;38739;53.324;6.862;2022-08-01T10:44:03;8.90;;;1.60;;
52866;SDS011;38739;53.324;6.862;2022-08-01T10:46:34;7.13;;;1.33;;
52866;SDS011;38739;53.324;6.862;2022-08-01T10:49:06;7.60;;;1.75;;
52866;SDS011;38739;53.324;6.862;2022-08-01T10:51:37;10.75;;;1.65;;
52866;SDS011;38739;53.324;6.862;2022-08-01T10:54:08;7.85;;;1.67;;
52866;SDS011;38739;53.324;6.862;2022-08-01T10:56:53;7.40;;;1.50;;
52866;SDS011;38739;53.324;6.862;2022-08-01T10:59:28;9.98;;;1.60;;
52866;SDS011;38739;53.324;6.862;2022-08-01T11:04:32;7.25;;;1.50;;
52866;SDS011;38739;53.324;6.862;2022-08-01T11:07:18;9.95;;;1.52;;
52866;SDS011;38739;53.324;6.862;2022-08-01T11:09:48;5.95;;;1.30;;
52866;SDS011;38739;53.324;6.862;2022-08-01T11:12:38;7.53;;;1.40;;
52866;SDS011;38739;53.324;6.862;2022-08-01T11:17:45;7.07;;;1.50;;
52866;SDS011;38739;53.324;6.862;2022-08-01T11:25:26;8.15;;;1.70;;
52866;SDS011;38739;53.324;6.862;2022-08-01T11:30:41;8.70;;;1.60;;
52866;SDS011;38739;53.324;6.862;2022-08-01T11:33:07;5.43;;;1.30;;
52866;SDS011;38739;53.324;6.862;2022-08-01T11:35:34;5.88;;;1.27;;
52866;SDS011;38739;53.324;6.862;2022-08-01T11:43:59;6.40;;;1.00;;
52866;SDS011;38739;53.324;6.862;2022-08-01T11:54:29;5.50;;;1.40;;
52866;SDS011;38739;53.324;6.862;2022-08-01T11:57:01;6.40;;;1.17;;
52866;SDS011;38739;53.324;6.862;2022-08-01T11:59:51;5.25;;;1.30;;
52866;SDS011;38739;53.324;6.862;2022-08-01T12:02:28;6.53;;;1.58;;
52866;SDS011;38739;53.324;6.862;2022-08-01T12:04:56;7.65;;;1.40;;
52866;SDS011;38739;53.324;6.862;2022-08-01T12:07:23;6.15;;;1.23;;
52866;SDS011;38739;53.324;6.862;2022-08-01T12:12:31;5.72;;;1.15;;
52866;SDS011;38739;53.324;6.862;2022-08-01T12:14:58;6.80;;;1.20;;
52866;SDS011;38739;53.324;6.862;2022-08-01T12:17:38;3.97;;;1.10;;
52866;SDS011;38739;53.324;6.862;2022-08-01T12:20:07;8.50;;;1.27;;
52866;SDS011;38739;53.324;6.862;2022-08-01T12:22:34;6.13;;;1.70;;
52866;SDS011;38739;53.324;6.862;2022-08-01T12:27:37;4.05;;;1.30;;
52866;SDS011;38739;53.324;6.862;2022-08-01T12:30:08;4.68;;;1.10;;
52866;SDS011;38739;53.324;6.862;2022-08-01T12:32:39;5.18;;;1.20;;
52866;SDS011;38739;53.324;6.862;2022-08-01T12:35:07;5.90;;;1.13;;
52866;SDS011;38739;53.324;6.862;2022-08-01T12:37:39;4.78;;;1.02;;
52866;SDS011;38739;53.324;6.862;2022-08-01T12:40:10;6.95;;;1.35;;
52866;SDS011;38739;53.324;6.862;2022-08-01T12:42:44;5.47;;;1.48;;
52866;SDS011;38739;53.324;6.862;2022-08-01T12:45:14;8.00;;;1.40;;
52866;SDS011;38739;53.324;6.862;2022-08-01T12:47:42;4.78;;;1.33;;
52866;SDS011;38739;53.324;6.862;2022-08-01T12:50:11;4.25;;;1.25;;
52866;SDS011;38739;53.324;6.862;2022-08-01T12:52:41;5.38;;;1.25;;
52866;SDS011;38739;53.324;6.862;2022-08-01T12:55:09;4.95;;;1.10;;
52866;SDS011;38739;53.324;6.862;2022-08-01T12:57:35;5.57;;;1.20;;
52866;SDS011;38739;53.324;6.862;2022-08-01T13:00:07;7.72;;;1.70;;
52866;SDS011;38739;53.324;6.862;2022-08-01T13:02:38;5.78;;;1.10;;
52866;SDS011;38739;53.324;6.862;2022-08-01T13:05:05;4.47;;;1.17;;
52866;SDS011;38739;53.324;6.862;2022-08-01T13:07:42;3.97;;;0.80;;
52866;SDS011;38739;53.324;6.862;2022-08-01T13:10:23;4.40;;;1.23;;
52866;SDS011;38739;53.324;6.862;2022-08-01T13:12:55;7.75;;;1.70;;
52866;SDS011;38739;53.324;6.862;2022-08-01T13:15:29;3.95;;;1.35;;
52866;SDS011;38739;53.324;6.862;2022-08-01T13:18:00;6.82;;;1.60;;
52866;SDS011;38739;53.324;6.862;2022-08-01T13:20:46;9.27;;;1.88;;
52866;SDS011;38739;53.324;6.862;2022-08-01T13:23:13;7.03;;;1.55;;
52866;SDS011;38739;53.324;6.862;2022-08-01T13:25:53;8.20;;;1.58;;
52866;SDS011;38739;53.324;6.862;2022-08-01T13:28:25;5.57;;;1.20;;
52866;SDS011;38739;53.324;6.862;2022-08-01T13:30:59;4.38;;;1.42;;
52866;SDS011;38739;53.324;6.862;2022-08-01T13:33:42;7.25;;;1.20;;
52866;SDS011;38739;53.324;6.862;2022-08-01T13:36:10;7.22;;;1.30;;
52866;SDS011;38739;53.324;6.862;2022-08-01T13:38:37;4.93;;;1.20;;
52866;SDS011;38739;53.324;6.862;2022-08-01T13:41:28;5.32;;;1.40;;
52866;SDS011;38739;53.324;6.862;2022-08-01T13:43:58;4.20;;;1.48;;
52866;SDS011;38739;53.324;6.862;2022-08-01T13:46:23;4.68;;;1.20;;
52866;SDS011;38739;53.324;6.862;2022-08-01T13:48:49;7.90;;;1.48;;
52866;SDS011;38739;53.324;6.862;2022-08-01T13:51:15;6.45;;;1.30;;
52866;SDS011;38739;53.324;6.862;2022-08-01T13:53:40;5.95;;;1.45;;
52866;SDS011;38739;53.324;6.862;2022-08-01T13:56:06;6.63;;;1.40;;
52866;SDS011;38739;53.324;6.862;2022-08-01T13:58:32;6.20;;;1.33;;
52866;SDS011;38739;53.324;6.862;2022-08-01T14:00:58;5.22;;;1.40;;
52866;SDS011;38739;53.324;6.862;2022-08-01T14:03:23;7.68;;;1.40;;
52866;SDS011;38739;53.324;6.862;2022-08-01T14:05:49;5.03;;;1.13;;
52866;SDS011;38739;53.324;6.862;2022-08-01T14:08:15;7.70;;;1.38;;
52866;SDS011;38739;53.324;6.862;2022-08-01T14:10:40;5.90;;;1.63;;
52866;SDS011;38739;53.324;6.862;2022-08-01T14:13:06;7.63;;;1.35;;
52866;SDS011;38739;53.324;6.862;2022-08-01T14:15:32;9.45;;;1.50;;
52866;SDS011;38739;53.324;6.862;2022-08-01T14:17:58;6.80;;;1.10;;
52866;SDS011;38739;53.324;6.862;2022-08-01T14:20:24;5.78;;;1.52;;
52866;SDS011;38739;53.324;6.862;2022-08-01T14:22:50;6.22;;;1.23;;
52866;SDS011;38739;53.324;6.862;2022-08-01T14:25:16;5.75;;;1.77;;
52866;SDS011;38739;53.324;6.862;2022-08-01T14:27:43;5.22;;;1.30;;
52866;SDS011;38739;53.324;6.862;2022-08-01T14:30:09;6.95;;;1.50;;
52866;SDS011;38739;53.324;6.862;2022-08-01T14:32:36;5.20;;;1.23;;
52866;SDS011;38739;53.324;6.862;2022-08-01T14:35:03;6.40;;;1.70;;
52866;SDS011;38739;53.324;6.862;2022-08-01T14:37:30;5.97;;;1.27;;
52866;SDS011;38739;53.324;6.862;2022-08-01T14:39:56;5.93;;;1.30;;
52866;SDS011;38739;53.324;6.862;2022-08-01T14:42:22;6.43;;;1.27;;
52866;SDS011;38739;53.324;6.862;2022-08-01T14:44:48;5.60;;;1.30;;
52866;SDS011;38739;53.324;6.862;2022-08-01T14:47:14;6.88;;;1.38;;
52866;SDS011;38739;53.324;6.862;2022-08-01T14:49:40;5.32;;;1.20;;
52866;SDS011;38739;53.324;6.862;2022-08-01T14:52:06;5.70;;;1.40;;
52866;SDS011;38739;53.324;6.862;2022-08-01T14:54:32;5.72;;;1.33;;
52866;SDS011;38739;53.324;6.862;2022-08-01T14:56:57;5.13;;;1.20;;
52866;SDS011;38739;53.324;6.862;2022-08-01T14:59:23;8.32;;;1.40;;
52866;SDS011;38739;53.324;6.862;2022-08-01T15:01:49;5.75;;;1.30;;
52866;SDS011;38739;53.324;6.862;2022-08-01T15:04:18;4.45;;;1.20;;
52866;SDS011;38739;53.324;6.862;2022-08-01T15:06:44;7.28;;;1.35;;
52866;SDS011;38739;53.324;6.862;2022-08-01T15:09:10;5.03;;;1.40;;
52866;SDS011;38739;53.324;6.862;2022-08-01T15:11:36;8.95;;;1.50;;
52866;SDS011;38739;53.324;6.862;2022-08-01T15:14:02;4.78;;;1.27;;
52866;SDS011;38739;53.324;6.862;2022-08-01T15:16:46;5.88;;;1.52;;
52866;SDS011;38739;53.324;6.862;2022-08-01T15:19:12;5.25;;;1.70;;
52866;SDS011;38739;53.324;6.862;2022-08-01T15:21:38;8.07;;;1.77;;
52866;SDS011;38739;53.324;6.862;2022-08-01T15:24:04;6.45;;;1.60;;
52866;SDS011;38739;53.324;6.862;2022-08-01T15:26:30;3.90;;;1.13;;
52866;SDS011;38739;53.324;6.862;2022-08-01T15:28:56;5.43;;;1.55;;
52866;SDS011;38739;53.324;6.862;2022-08-01T15:31:21;5.63;;;1.40;;
52866;SDS011;38739;53.324;6.862;2022-08-01T15:33:47;6.20;;;1.27;;
52866;SDS011;38739;53.324;6.862;2022-08-01T15:36:13;8.52;;;1.42;;
52866;SDS011;38739;53.324;6.862;2022-08-01T15:38:39;5.35;;;1.40;;
52866;SDS011;38739;53.324;6.862;2022-08-01T15:41:04;7.63;;;1.38;;
52866;SDS011;38739;53.324;6.862;2022-08-01T15:43:30;6.45;;;1.30;;
52866;SDS011;38739;53.324;6.862;2022-08-01T15:45:56;5.18;;;1.50;;
52866;SDS011;38739;53.324;6.862;2022-08-01T15:48:23;7.10;;;1.30;;
52866;SDS011;38739;53.324;6.862;2022-08-01T15:50:48;5.80;;;1.40;;